sensor_id;sensor_type;location;lat;lon;timestamp;P1;durP1;ratioP1;P2;durP2;ratioP2
75446;SDS011;64024;55.820;37.574;2023-04-25T00:01:40;9.60;;;5.30;;
75446;SDS011;64024;55.820;37.574;2023-04-25T00:04:06;12.65;;;5.45;;
75446;SDS011;64024;55.820;37.574;2023-04-25T00:06:33;9.57;;;4.85;;
75446;SDS011;64024;55.820;37.574;2023-04-25T00:09:02;6.85;;;4.35;;
75446;SDS011;64024;55.820;37.574;2023-04-25T00:11:28;7.65;;;4.43;;
75446;SDS011;64024;55.820;37.574;2023-04-25T00:13:56;8.20;;;4.13;;
75446;SDS011;64024;55.820;37.574;2023-04-25T00:16:22;8.43;;;4.40;;
75446;SDS011;64024;55.820;37.574;2023-04-25T00:18:48;12.38;;;6.57;;
75446;SDS011;64024;55.820;37.574;2023-04-25T00:21:17;10.73;;;5.07;;
75446;SDS011;64024;55.820;37.574;2023-04-25T00:23:44;7.45;;;4.50;;
75446;SDS011;64024;55.820;37.574;2023-04-25T00:26:11;7.80;;;4.63;;
75446;SDS011;64024;55.820;37.574;2023-04-25T00:28:37;7.70;;;4.30;;
75446;SDS011;64024;55.820;37.574;2023-04-25T00:31:03;5.53;;;3.33;;
75446;SDS011;64024;55.820;37.574;2023-04-25T00:33:29;7.80;;;3.67;;
75446;SDS011;64024;55.820;37.574;2023-04-25T00:35:55;5.72;;;3.42;;
75446;SDS011;64024;55.820;37.574;2023-04-25T00:38:21;6.00;;;3.55;;
75446;SDS011;64024;55.820;37.574;2023-04-25T00:40:47;7.05;;;4.05;;
75446;SDS011;64024;55.820;37.574;2023-04-25T00:43:13;10.40;;;3.75;;
75446;SDS011;64024;55.820;37.574;2023-04-25T00:45:39;5.95;;;3.45;;
75446;SDS011;64024;55.820;37.574;2023-04-25T00:48:06;5.93;;;4.05;;
75446;SDS011;64024;55.820;37.574;2023-04-25T00:50:33;8.63;;;3.42;;
75446;SDS011;64024;55.820;37.574;2023-04-25T00:52:59;11.20;;;5.00;;
75446;SDS011;64024;55.820;37.574;2023-04-25T00:55:26;8.30;;;4.47;;
75446;SDS011;64024;55.820;37.574;2023-04-25T00:57:52;8.73;;;5.28;;
75446;SDS011;64024;55.820;37.574;2023-04-25T01:00:18;6.72;;;4.25;;
75446;SDS011;64024;55.820;37.574;2023-04-25T01:02:45;7.85;;;4.25;;
75446;SDS011;64024;55.820;37.574;2023-04-25T01:05:12;6.07;;;3.75;;
75446;SDS011;64024;55.820;37.574;2023-04-25T01:07:38;6.13;;;3.92;;
75446;SDS011;64024;55.820;37.574;2023-04-25T01:12:31;5.82;;;3.05;;
75446;SDS011;64024;55.820;37.574;2023-04-25T01:14:57;5.53;;;3.35;;
75446;SDS011;64024;55.820;37.574;2023-04-25T01:17:23;5.72;;;3.45;;
75446;SDS011;64024;55.820;37.574;2023-04-25T01:19:49;7.05;;;3.35;;
75446;SDS011;64024;55.820;37.574;2023-04-25T01:22:16;5.30;;;3.38;;
75446;SDS011;64024;55.820;37.574;2023-04-25T01:24:43;7.35;;;3.58;;
75446;SDS011;64024;55.820;37.574;2023-04-25T01:27:09;7.47;;;3.67;;
75446;SDS011;64024;55.820;37.574;2023-04-25T01:29:35;9.98;;;4.50;;
75446;SDS011;64024;55.820;37.574;2023-04-25T01:32:01;9.23;;;4.45;;
75446;SDS011;64024;55.820;37.574;2023-04-25T01:34:28;10.50;;;4.68;;
75446;SDS011;64024;55.820;37.574;2023-04-25T01:36:54;8.00;;;4.80;;
75446;SDS011;64024;55.820;37.574;2023-04-25T01:39:19;7.32;;;4.05;;
75446;SDS011;64024;55.820;37.574;2023-04-25T01:41:46;6.47;;;4.05;;
75446;SDS011;64024;55.820;37.574;2023-04-25T01:44:13;6.05;;;4.35;;
75446;SDS011;64024;55.820;37.574;2023-04-25T01:46:40;16.95;;;5.78;;
75446;SDS011;64024;55.820;37.574;2023-04-25T01:49:05;13.23;;;5.38;;
75446;SDS011;64024;55.820;37.574;2023-04-25T01:51:32;7.85;;;5.07;;
75446;SDS011;64024;55.820;37.574;2023-04-25T01:53:58;7.68;;;4.85;;
75446;SDS011;64024;55.820;37.574;2023-04-25T01:56:24;7.03;;;4.25;;
75446;SDS011;64024;55.820;37.574;2023-04-25T01:58:50;8.70;;;4.53;;
75446;SDS011;64024;55.820;37.574;2023-04-25T02:01:17;8.85;;;5.45;;
75446;SDS011;64024;55.820;37.574;2023-04-25T02:03:43;14.40;;;5.82;;
75446;SDS011;64024;55.820;37.574;2023-04-25T02:06:08;8.30;;;5.03;;
75446;SDS011;64024;55.820;37.574;2023-04-25T02:08:35;11.70;;;5.68;;
75446;SDS011;64024;55.820;37.574;2023-04-25T02:13:28;7.13;;;5.30;;
75446;SDS011;64024;55.820;37.574;2023-04-25T02:15:54;7.25;;;4.50;;
75446;SDS011;64024;55.820;37.574;2023-04-25T02:18:20;15.25;;;6.13;;
75446;SDS011;64024;55.820;37.574;2023-04-25T02:20:46;12.32;;;6.60;;
75446;SDS011;64024;55.820;37.574;2023-04-25T02:23:12;9.88;;;6.15;;
75446;SDS011;64024;55.820;37.574;2023-04-25T02:25:38;9.93;;;6.63;;
75446;SDS011;64024;55.820;37.574;2023-04-25T02:28:04;8.95;;;5.82;;
75446;SDS011;64024;55.820;37.574;2023-04-25T02:30:30;6.45;;;4.28;;
75446;SDS011;64024;55.820;37.574;2023-04-25T02:32:55;10.00;;;5.78;;
75446;SDS011;64024;55.820;37.574;2023-04-25T02:35:21;11.38;;;6.38;;
75446;SDS011;64024;55.820;37.574;2023-04-25T02:37:47;19.30;;;6.97;;
75446;SDS011;64024;55.820;37.574;2023-04-25T02:40:13;13.98;;;6.85;;
75446;SDS011;64024;55.820;37.574;2023-04-25T02:42:38;11.57;;;6.38;;
75446;SDS011;64024;55.820;37.574;2023-04-25T02:45:04;12.52;;;7.28;;
75446;SDS011;64024;55.820;37.574;2023-04-25T02:47:30;7.90;;;6.50;;
75446;SDS011;64024;55.820;37.574;2023-04-25T02:49:56;11.10;;;6.28;;
75446;SDS011;64024;55.820;37.574;2023-04-25T02:52:22;8.52;;;6.03;;
75446;SDS011;64024;55.820;37.574;2023-04-25T02:54:47;9.38;;;6.55;;
75446;SDS011;64024;55.820;37.574;2023-04-25T02:57:13;7.95;;;6.35;;
75446;SDS011;64024;55.820;37.574;2023-04-25T02:59:39;13.60;;;6.70;;
75446;SDS011;64024;55.820;37.574;2023-04-25T03:02:04;9.38;;;6.45;;
75446;SDS011;64024;55.820;37.574;2023-04-25T03:04:30;11.73;;;6.95;;
75446;SDS011;64024;55.820;37.574;2023-04-25T03:06:56;11.52;;;6.57;;
75446;SDS011;64024;55.820;37.574;2023-04-25T03:09:22;15.57;;;6.65;;
75446;SDS011;64024;55.820;37.574;2023-04-25T03:11:48;11.60;;;5.72;;
75446;SDS011;64024;55.820;37.574;2023-04-25T03:14:13;9.15;;;6.25;;
75446;SDS011;64024;55.820;37.574;2023-04-25T03:16:39;14.50;;;7.95;;
75446;SDS011;64024;55.820;37.574;2023-04-25T03:19:05;12.55;;;6.72;;
75446;SDS011;64024;55.820;37.574;2023-04-25T03:21:31;12.93;;;7.78;;
75446;SDS011;64024;55.820;37.574;2023-04-25T03:23:59;13.35;;;6.43;;
75446;SDS011;64024;55.820;37.574;2023-04-25T03:26:25;14.13;;;6.97;;
75446;SDS011;64024;55.820;37.574;2023-04-25T03:28:51;14.70;;;7.75;;
75446;SDS011;64024;55.820;37.574;2023-04-25T03:31:17;15.80;;;7.78;;
75446;SDS011;64024;55.820;37.574;2023-04-25T03:33:42;18.63;;;7.68;;
75446;SDS011;64024;55.820;37.574;2023-04-25T03:36:08;16.83;;;7.40;;
75446;SDS011;64024;55.820;37.574;2023-04-25T03:38:34;16.13;;;7.82;;
75446;SDS011;64024;55.820;37.574;2023-04-25T03:41:01;17.33;;;7.45;;
75446;SDS011;64024;55.820;37.574;2023-04-25T03:43:27;12.27;;;7.53;;
75446;SDS011;64024;55.820;37.574;2023-04-25T03:45:52;14.88;;;8.57;;
75446;SDS011;64024;55.820;37.574;2023-04-25T03:48:18;12.00;;;6.50;;
75446;SDS011;64024;55.820;37.574;2023-04-25T03:50:46;10.32;;;7.70;;
75446;SDS011;64024;55.820;37.574;2023-04-25T03:53:12;12.63;;;7.05;;
75446;SDS011;64024;55.820;37.574;2023-04-25T03:55:38;9.77;;;6.57;;
75446;SDS011;64024;55.820;37.574;2023-04-25T03:58:04;11.35;;;7.65;;
75446;SDS011;64024;55.820;37.574;2023-04-25T04:00:30;10.38;;;6.40;;
75446;SDS011;64024;55.820;37.574;2023-04-25T04:02:56;11.10;;;6.43;;
75446;SDS011;64024;55.820;37.574;2023-04-25T04:05:22;9.95;;;7.63;;
75446;SDS011;64024;55.820;37.574;2023-04-25T04:07:48;14.48;;;7.38;;
75446;SDS011;64024;55.820;37.574;2023-04-25T04:10:14;11.73;;;7.45;;
75446;SDS011;64024;55.820;37.574;2023-04-25T04:12:39;12.82;;;8.07;;
75446;SDS011;64024;55.820;37.574;2023-04-25T04:15:05;12.43;;;8.20;;
75446;SDS011;64024;55.820;37.574;2023-04-25T04:17:31;12.63;;;7.75;;
75446;SDS011;64024;55.820;37.574;2023-04-25T04:19:57;10.60;;;7.28;;
75446;SDS011;64024;55.820;37.574;2023-04-25T04:22:23;14.85;;;8.02;;
75446;SDS011;64024;55.820;37.574;2023-04-25T04:24:49;12.38;;;7.60;;
75446;SDS011;64024;55.820;37.574;2023-04-25T04:27:17;12.85;;;7.65;;
75446;SDS011;64024;55.820;37.574;2023-04-25T04:29:43;10.40;;;8.02;;
75446;SDS011;64024;55.820;37.574;2023-04-25T04:32:09;13.73;;;7.82;;
75446;SDS011;64024;55.820;37.574;2023-04-25T04:34:34;12.07;;;7.53;;
75446;SDS011;64024;55.820;37.574;2023-04-25T04:37:01;15.10;;;7.65;;
75446;SDS011;64024;55.820;37.574;2023-04-25T04:39:26;11.52;;;7.63;;
75446;SDS011;64024;55.820;37.574;2023-04-25T04:41:52;11.85;;;7.85;;
75446;SDS011;64024;55.820;37.574;2023-04-25T04:44:18;13.32;;;8.30;;
75446;SDS011;64024;55.820;37.574;2023-04-25T04:46:44;11.07;;;7.78;;
75446;SDS011;64024;55.820;37.574;2023-04-25T04:49:10;10.13;;;7.50;;
75446;SDS011;64024;55.820;37.574;2023-04-25T04:51:37;11.55;;;7.60;;
75446;SDS011;64024;55.820;37.574;2023-04-25T04:54:03;9.88;;;7.07;;
75446;SDS011;64024;55.820;37.574;2023-04-25T04:56:30;10.55;;;7.65;;
75446;SDS011;64024;55.820;37.574;2023-04-25T04:58:58;10.98;;;8.15;;
75446;SDS011;64024;55.820;37.574;2023-04-25T05:01:25;13.32;;;8.95;;
75446;SDS011;64024;55.820;37.574;2023-04-25T05:03:51;11.77;;;7.65;;
75446;SDS011;64024;55.820;37.574;2023-04-25T05:06:18;12.10;;;8.10;;
75446;SDS011;64024;55.820;37.574;2023-04-25T05:08:44;10.15;;;7.35;;
75446;SDS011;64024;55.820;37.574;2023-04-25T05:11:10;10.27;;;7.28;;
75446;SDS011;64024;55.820;37.574;2023-04-25T05:13:36;12.02;;;7.57;;
75446;SDS011;64024;55.820;37.574;2023-04-25T05:16:02;11.15;;;8.90;;
75446;SDS011;64024;55.820;37.574;2023-04-25T05:18:28;11.68;;;8.45;;
75446;SDS011;64024;55.820;37.574;2023-04-25T05:20:54;11.48;;;8.27;;
75446;SDS011;64024;55.820;37.574;2023-04-25T05:23:20;9.32;;;8.35;;
75446;SDS011;64024;55.820;37.574;2023-04-25T05:25:46;15.73;;;8.38;;
75446;SDS011;64024;55.820;37.574;2023-04-25T05:28:12;10.52;;;8.18;;
75446;SDS011;64024;55.820;37.574;2023-04-25T05:30:38;12.27;;;9.10;;
75446;SDS011;64024;55.820;37.574;2023-04-25T05:33:05;10.77;;;9.55;;
75446;SDS011;64024;55.820;37.574;2023-04-25T05:35:30;11.23;;;9.27;;
75446;SDS011;64024;55.820;37.574;2023-04-25T05:37:56;9.73;;;8.77;;
75446;SDS011;64024;55.820;37.574;2023-04-25T05:40:22;11.13;;;9.13;;
75446;SDS011;64024;55.820;37.574;2023-04-25T05:42:47;10.27;;;8.05;;
75446;SDS011;64024;55.820;37.574;2023-04-25T05:45:13;9.25;;;8.23;;
75446;SDS011;64024;55.820;37.574;2023-04-25T05:47:39;9.48;;;7.70;;
75446;SDS011;64024;55.820;37.574;2023-04-25T05:50:05;10.27;;;8.70;;
75446;SDS011;64024;55.820;37.574;2023-04-25T05:52:31;9.25;;;8.05;;
75446;SDS011;64024;55.820;37.574;2023-04-25T05:54:57;13.77;;;9.27;;
75446;SDS011;64024;55.820;37.574;2023-04-25T05:57:26;10.02;;;8.93;;
75446;SDS011;64024;55.820;37.574;2023-04-25T05:59:52;12.82;;;8.73;;
75446;SDS011;64024;55.820;37.574;2023-04-25T06:02:19;10.70;;;9.25;;
75446;SDS011;64024;55.820;37.574;2023-04-25T06:04:46;10.10;;;8.65;;
75446;SDS011;64024;55.820;37.574;2023-04-25T06:07:14;12.90;;;9.20;;
75446;SDS011;64024;55.820;37.574;2023-04-25T06:09:40;10.73;;;8.85;;
75446;SDS011;64024;55.820;37.574;2023-04-25T06:12:06;9.77;;;8.75;;
75446;SDS011;64024;55.820;37.574;2023-04-25T06:14:32;10.70;;;9.60;;
75446;SDS011;64024;55.820;37.574;2023-04-25T06:17:01;9.35;;;8.40;;
75446;SDS011;64024;55.820;37.574;2023-04-25T06:19:35;9.25;;;8.35;;
75446;SDS011;64024;55.820;37.574;2023-04-25T06:22:01;10.75;;;8.70;;
75446;SDS011;64024;55.820;37.574;2023-04-25T06:24:27;10.20;;;9.20;;
75446;SDS011;64024;55.820;37.574;2023-04-25T06:26:53;11.55;;;9.82;;
75446;SDS011;64024;55.820;37.574;2023-04-25T06:29:19;12.52;;;9.52;;
75446;SDS011;64024;55.820;37.574;2023-04-25T06:31:45;10.68;;;8.95;;
75446;SDS011;64024;55.820;37.574;2023-04-25T06:34:11;11.90;;;9.38;;
75446;SDS011;64024;55.820;37.574;2023-04-25T06:36:36;11.13;;;9.05;;
75446;SDS011;64024;55.820;37.574;2023-04-25T06:39:02;11.38;;;8.88;;
75446;SDS011;64024;55.820;37.574;2023-04-25T06:41:28;11.20;;;9.60;;
75446;SDS011;64024;55.820;37.574;2023-04-25T06:43:54;13.88;;;9.30;;
75446;SDS011;64024;55.820;37.574;2023-04-25T06:46:19;10.93;;;9.40;;
75446;SDS011;64024;55.820;37.574;2023-04-25T06:48:45;13.90;;;9.35;;
75446;SDS011;64024;55.820;37.574;2023-04-25T06:51:11;9.75;;;8.75;;
75446;SDS011;64024;55.820;37.574;2023-04-25T06:53:38;10.65;;;9.57;;
75446;SDS011;64024;55.820;37.574;2023-04-25T06:56:08;10.40;;;9.35;;
75446;SDS011;64024;55.820;37.574;2023-04-25T06:58:33;12.73;;;9.27;;
75446;SDS011;64024;55.820;37.574;2023-04-25T07:00:59;10.52;;;9.25;;
75446;SDS011;64024;55.820;37.574;2023-04-25T07:03:25;9.02;;;8.10;;
75446;SDS011;64024;55.820;37.574;2023-04-25T07:05:50;8.48;;;7.63;;
75446;SDS011;64024;55.820;37.574;2023-04-25T07:08:16;10.27;;;8.48;;
75446;SDS011;64024;55.820;37.574;2023-04-25T07:10:42;11.10;;;8.40;;
75446;SDS011;64024;55.820;37.574;2023-04-25T07:13:08;10.23;;;8.70;;
75446;SDS011;64024;55.820;37.574;2023-04-25T07:15:34;9.88;;;8.27;;
75446;SDS011;64024;55.820;37.574;2023-04-25T07:17:59;11.77;;;8.43;;
75446;SDS011;64024;55.820;37.574;2023-04-25T07:20:25;10.43;;;9.20;;
75446;SDS011;64024;55.820;37.574;2023-04-25T07:22:52;10.85;;;9.43;;
75446;SDS011;64024;55.820;37.574;2023-04-25T07:25:18;10.63;;;9.02;;
75446;SDS011;64024;55.820;37.574;2023-04-25T07:27:44;10.98;;;9.00;;
75446;SDS011;64024;55.820;37.574;2023-04-25T07:30:10;12.13;;;8.27;;
75446;SDS011;64024;55.820;37.574;2023-04-25T07:32:37;13.02;;;8.50;;
75446;SDS011;64024;55.820;37.574;2023-04-25T07:35:03;10.20;;;7.05;;
75446;SDS011;64024;55.820;37.574;2023-04-25T07:37:29;9.63;;;7.38;;
75446;SDS011;64024;55.820;37.574;2023-04-25T07:39:55;8.57;;;7.30;;
75446;SDS011;64024;55.820;37.574;2023-04-25T07:42:20;10.65;;;8.13;;
75446;SDS011;64024;55.820;37.574;2023-04-25T07:44:46;10.68;;;8.95;;
75446;SDS011;64024;55.820;37.574;2023-04-25T07:47:12;12.98;;;6.88;;
75446;SDS011;64024;55.820;37.574;2023-04-25T07:49:38;8.30;;;6.22;;
75446;SDS011;64024;55.820;37.574;2023-04-25T07:52:05;6.95;;;5.35;;
75446;SDS011;64024;55.820;37.574;2023-04-25T07:54:31;10.57;;;5.28;;
75446;SDS011;64024;55.820;37.574;2023-04-25T07:56:57;10.82;;;4.93;;
75446;SDS011;64024;55.820;37.574;2023-04-25T07:59:23;11.32;;;5.47;;
75446;SDS011;64024;55.820;37.574;2023-04-25T08:01:49;6.80;;;5.20;;
75446;SDS011;64024;55.820;37.574;2023-04-25T08:04:15;7.32;;;4.82;;
75446;SDS011;64024;55.820;37.574;2023-04-25T08:06:42;6.88;;;4.28;;
75446;SDS011;64024;55.820;37.574;2023-04-25T08:09:08;7.93;;;4.97;;
75446;SDS011;64024;55.820;37.574;2023-04-25T08:11:35;6.68;;;5.07;;
75446;SDS011;64024;55.820;37.574;2023-04-25T08:14:01;9.32;;;4.72;;
75446;SDS011;64024;55.820;37.574;2023-04-25T08:16:27;8.82;;;5.05;;
75446;SDS011;64024;55.820;37.574;2023-04-25T08:18:54;8.15;;;4.80;;
75446;SDS011;64024;55.820;37.574;2023-04-25T08:21:19;5.80;;;4.35;;
75446;SDS011;64024;55.820;37.574;2023-04-25T08:23:46;8.02;;;4.13;;
75446;SDS011;64024;55.820;37.574;2023-04-25T08:26:12;7.07;;;3.72;;
75446;SDS011;64024;55.820;37.574;2023-04-25T08:28:37;7.88;;;4.50;;
75446;SDS011;64024;55.820;37.574;2023-04-25T08:31:03;8.73;;;6.05;;
75446;SDS011;64024;55.820;37.574;2023-04-25T08:33:29;5.80;;;4.35;;
75446;SDS011;64024;55.820;37.574;2023-04-25T08:35:56;7.93;;;4.57;;
75446;SDS011;64024;55.820;37.574;2023-04-25T08:38:22;5.18;;;3.88;;
75446;SDS011;64024;55.820;37.574;2023-04-25T08:40:49;7.13;;;4.03;;
75446;SDS011;64024;55.820;37.574;2023-04-25T08:43:17;6.03;;;3.83;;
75446;SDS011;64024;55.820;37.574;2023-04-25T08:45:44;11.68;;;5.25;;
75446;SDS011;64024;55.820;37.574;2023-04-25T08:48:14;10.07;;;4.30;;
75446;SDS011;64024;55.820;37.574;2023-04-25T08:50:49;6.72;;;4.00;;
75446;SDS011;64024;55.820;37.574;2023-04-25T08:53:18;4.38;;;3.28;;
75446;SDS011;64024;55.820;37.574;2023-04-25T08:55:47;8.63;;;3.65;;
75446;SDS011;64024;55.820;37.574;2023-04-25T09:00:40;7.68;;;3.38;;
75446;SDS011;64024;55.820;37.574;2023-04-25T09:03:06;4.22;;;3.30;;
75446;SDS011;64024;55.820;37.574;2023-04-25T09:05:32;10.95;;;4.28;;
75446;SDS011;64024;55.820;37.574;2023-04-25T09:07:58;7.90;;;3.72;;
75446;SDS011;64024;55.820;37.574;2023-04-25T09:10:26;6.18;;;3.28;;
75446;SDS011;64024;55.820;37.574;2023-04-25T09:13:08;7.38;;;3.17;;
75446;SDS011;64024;55.820;37.574;2023-04-25T09:15:53;5.90;;;3.65;;
75446;SDS011;64024;55.820;37.574;2023-04-25T09:21:05;7.15;;;3.30;;
75446;SDS011;64024;55.820;37.574;2023-04-25T09:23:31;8.15;;;3.30;;
75446;SDS011;64024;55.820;37.574;2023-04-25T09:26:05;7.90;;;3.28;;
75446;SDS011;64024;55.820;37.574;2023-04-25T09:28:33;6.47;;;3.17;;
75446;SDS011;64024;55.820;37.574;2023-04-25T09:31:00;7.30;;;3.40;;
75446;SDS011;64024;55.820;37.574;2023-04-25T09:33:27;5.47;;;3.38;;
75446;SDS011;64024;55.820;37.574;2023-04-25T09:35:56;4.35;;;3.15;;
75446;SDS011;64024;55.820;37.574;2023-04-25T09:38:28;9.90;;;4.53;;
75446;SDS011;64024;55.820;37.574;2023-04-25T09:40:56;6.20;;;3.58;;
75446;SDS011;64024;55.820;37.574;2023-04-25T09:43:23;8.05;;;3.90;;
75446;SDS011;64024;55.820;37.574;2023-04-25T09:45:50;7.00;;;3.85;;
75446;SDS011;64024;55.820;37.574;2023-04-25T09:50:45;5.13;;;3.95;;
75446;SDS011;64024;55.820;37.574;2023-04-25T09:53:35;5.30;;;3.53;;
75446;SDS011;64024;55.820;37.574;2023-04-25T09:56:05;10.30;;;4.88;;
75446;SDS011;64024;55.820;37.574;2023-04-25T09:58:33;7.20;;;3.85;;
75446;SDS011;64024;55.820;37.574;2023-04-25T10:01:02;7.10;;;3.78;;
75446;SDS011;64024;55.820;37.574;2023-04-25T10:03:31;6.03;;;3.58;;
75446;SDS011;64024;55.820;37.574;2023-04-25T10:06:07;5.30;;;3.28;;
75446;SDS011;64024;55.820;37.574;2023-04-25T10:08:34;6.82;;;3.47;;
75446;SDS011;64024;55.820;37.574;2023-04-25T10:11:03;8.55;;;3.60;;
75446;SDS011;64024;55.820;37.574;2023-04-25T10:13:30;9.20;;;4.15;;
75446;SDS011;64024;55.820;37.574;2023-04-25T10:18:24;5.18;;;3.10;;
75446;SDS011;64024;55.820;37.574;2023-04-25T10:20:54;8.60;;;3.35;;
75446;SDS011;64024;55.820;37.574;2023-04-25T10:23:21;8.27;;;3.28;;
75446;SDS011;64024;55.820;37.574;2023-04-25T10:25:49;5.90;;;3.10;;
75446;SDS011;64024;55.820;37.574;2023-04-25T10:28:16;6.80;;;3.42;;
75446;SDS011;64024;55.820;37.574;2023-04-25T10:30:58;9.07;;;3.75;;
75446;SDS011;64024;55.820;37.574;2023-04-25T10:36:11;5.07;;;3.78;;
75446;SDS011;64024;55.820;37.574;2023-04-25T10:38:40;4.22;;;2.95;;
75446;SDS011;64024;55.820;37.574;2023-04-25T10:41:08;8.65;;;3.17;;
75446;SDS011;64024;55.820;37.574;2023-04-25T10:43:36;5.50;;;3.03;;
75446;SDS011;64024;55.820;37.574;2023-04-25T10:48:53;5.35;;;3.10;;
75446;SDS011;64024;55.820;37.574;2023-04-25T10:51:24;6.10;;;2.95;;
75446;SDS011;64024;55.820;37.574;2023-04-25T10:56:21;6.82;;;3.30;;
75446;SDS011;64024;55.820;37.574;2023-04-25T10:59:07;6.80;;;3.00;;
75446;SDS011;64024;55.820;37.574;2023-04-25T11:01:40;4.50;;;2.83;;
75446;SDS011;64024;55.820;37.574;2023-04-25T11:04:19;12.45;;;4.68;;
75446;SDS011;64024;55.820;37.574;2023-04-25T11:09:38;4.65;;;2.55;;
75446;SDS011;64024;55.820;37.574;2023-04-25T11:12:06;4.40;;;2.40;;
75446;SDS011;64024;55.820;37.574;2023-04-25T11:14:34;5.05;;;2.55;;
75446;SDS011;64024;55.820;37.574;2023-04-25T11:19:27;4.28;;;1.88;;
75446;SDS011;64024;55.820;37.574;2023-04-25T11:21:57;6.63;;;3.78;;
75446;SDS011;64024;55.820;37.574;2023-04-25T11:24:30;3.35;;;2.20;;
75446;SDS011;64024;55.820;37.574;2023-04-25T11:27:00;4.25;;;2.30;;
75446;SDS011;64024;55.820;37.574;2023-04-25T11:29:29;3.00;;;2.10;;
75446;SDS011;64024;55.820;37.574;2023-04-25T11:31:56;2.75;;;1.80;;
75446;SDS011;64024;55.820;37.574;2023-04-25T11:34:26;3.92;;;2.47;;
75446;SDS011;64024;55.820;37.574;2023-04-25T11:36:55;3.35;;;2.60;;
75446;SDS011;64024;55.820;37.574;2023-04-25T11:39:26;2.95;;;2.13;;
75446;SDS011;64024;55.820;37.574;2023-04-25T11:41:52;5.20;;;2.17;;
75446;SDS011;64024;55.820;37.574;2023-04-25T11:44:19;6.03;;;2.55;;
75446;SDS011;64024;55.820;37.574;2023-04-25T11:46:45;3.95;;;2.08;;
75446;SDS011;64024;55.820;37.574;2023-04-25T11:49:12;3.67;;;2.28;;
75446;SDS011;64024;55.820;37.574;2023-04-25T11:51:39;6.13;;;2.42;;
75446;SDS011;64024;55.820;37.574;2023-04-25T11:54:08;4.97;;;2.45;;
75446;SDS011;64024;55.820;37.574;2023-04-25T11:56:34;9.25;;;2.88;;
75446;SDS011;64024;55.820;37.574;2023-04-25T11:59:04;3.83;;;1.77;;
75446;SDS011;64024;55.820;37.574;2023-04-25T12:01:32;3.35;;;1.98;;
75446;SDS011;64024;55.820;37.574;2023-04-25T12:03:58;3.35;;;1.75;;
75446;SDS011;64024;55.820;37.574;2023-04-25T12:06:38;4.50;;;1.88;;
75446;SDS011;64024;55.820;37.574;2023-04-25T12:09:09;3.60;;;1.70;;
75446;SDS011;64024;55.820;37.574;2023-04-25T12:11:43;9.68;;;3.38;;
75446;SDS011;64024;55.820;37.574;2023-04-25T12:14:22;8.25;;;2.83;;
75446;SDS011;64024;55.820;37.574;2023-04-25T12:16:49;4.32;;;2.05;;
75446;SDS011;64024;55.820;37.574;2023-04-25T12:19:16;8.02;;;2.47;;
75446;SDS011;64024;55.820;37.574;2023-04-25T12:21:43;4.40;;;2.70;;
75446;SDS011;64024;55.820;37.574;2023-04-25T12:24:14;4.85;;;2.95;;
75446;SDS011;64024;55.820;37.574;2023-04-25T12:26:48;4.88;;;2.15;;
75446;SDS011;64024;55.820;37.574;2023-04-25T12:29:24;6.97;;;2.25;;
75446;SDS011;64024;55.820;37.574;2023-04-25T12:31:51;4.55;;;2.47;;
75446;SDS011;64024;55.820;37.574;2023-04-25T12:34:18;4.68;;;2.58;;
75446;SDS011;64024;55.820;37.574;2023-04-25T12:36:45;4.63;;;2.50;;
75446;SDS011;64024;55.820;37.574;2023-04-25T12:39:17;3.38;;;2.30;;
75446;SDS011;64024;55.820;37.574;2023-04-25T12:41:44;5.35;;;2.38;;
75446;SDS011;64024;55.820;37.574;2023-04-25T12:44:12;4.25;;;2.45;;
75446;SDS011;64024;55.820;37.574;2023-04-25T12:46:38;10.45;;;3.95;;
75446;SDS011;64024;55.820;37.574;2023-04-25T12:49:06;4.70;;;2.65;;
75446;SDS011;64024;55.820;37.574;2023-04-25T12:53:59;6.80;;;2.10;;
75446;SDS011;64024;55.820;37.574;2023-04-25T12:56:28;4.28;;;2.25;;
75446;SDS011;64024;55.820;37.574;2023-04-25T12:58:55;5.00;;;2.47;;
75446;SDS011;64024;55.820;37.574;2023-04-25T13:01:22;6.25;;;2.20;;
75446;SDS011;64024;55.820;37.574;2023-04-25T13:03:47;10.27;;;4.55;;
75446;SDS011;64024;55.820;37.574;2023-04-25T13:06:14;5.55;;;2.63;;
75446;SDS011;64024;55.820;37.574;2023-04-25T13:08:40;8.60;;;2.40;;
75446;SDS011;64024;55.820;37.574;2023-04-25T13:11:07;3.72;;;2.08;;
75446;SDS011;64024;55.820;37.574;2023-04-25T13:13:33;3.55;;;2.30;;
75446;SDS011;64024;55.820;37.574;2023-04-25T13:16:02;4.78;;;2.75;;
75446;SDS011;64024;55.820;37.574;2023-04-25T13:18:29;5.20;;;2.75;;
75446;SDS011;64024;55.820;37.574;2023-04-25T13:20:57;5.75;;;3.03;;
75446;SDS011;64024;55.820;37.574;2023-04-25T13:23:25;4.85;;;3.22;;
75446;SDS011;64024;55.820;37.574;2023-04-25T13:25:51;3.38;;;2.80;;
75446;SDS011;64024;55.820;37.574;2023-04-25T13:28:17;3.13;;;2.38;;
75446;SDS011;64024;55.820;37.574;2023-04-25T13:30:44;7.28;;;3.03;;
75446;SDS011;64024;55.820;37.574;2023-04-25T13:33:10;4.97;;;2.53;;
75446;SDS011;64024;55.820;37.574;2023-04-25T13:35:37;3.13;;;2.30;;
75446;SDS011;64024;55.820;37.574;2023-04-25T13:38:03;5.80;;;3.05;;
75446;SDS011;64024;55.820;37.574;2023-04-25T13:40:30;5.15;;;3.35;;
75446;SDS011;64024;55.820;37.574;2023-04-25T13:42:57;4.88;;;2.65;;
75446;SDS011;64024;55.820;37.574;2023-04-25T13:45:23;7.32;;;3.20;;
75446;SDS011;64024;55.820;37.574;2023-04-25T13:47:49;8.30;;;2.97;;
75446;SDS011;64024;55.820;37.574;2023-04-25T13:50:15;5.22;;;2.92;;
75446;SDS011;64024;55.820;37.574;2023-04-25T13:52:41;5.60;;;3.45;;
75446;SDS011;64024;55.820;37.574;2023-04-25T13:55:07;5.32;;;3.30;;
75446;SDS011;64024;55.820;37.574;2023-04-25T13:57:34;5.05;;;2.80;;
75446;SDS011;64024;55.820;37.574;2023-04-25T14:00:02;5.25;;;2.80;;
75446;SDS011;64024;55.820;37.574;2023-04-25T14:02:37;7.40;;;2.70;;
75446;SDS011;64024;55.820;37.574;2023-04-25T14:05:03;5.50;;;3.20;;
75446;SDS011;64024;55.820;37.574;2023-04-25T14:07:29;6.32;;;3.70;;
75446;SDS011;64024;55.820;37.574;2023-04-25T14:09:56;5.03;;;3.08;;
75446;SDS011;64024;55.820;37.574;2023-04-25T14:12:25;7.90;;;3.72;;
75446;SDS011;64024;55.820;37.574;2023-04-25T14:14:51;5.28;;;3.35;;
75446;SDS011;64024;55.820;37.574;2023-04-25T14:17:18;5.72;;;3.50;;
75446;SDS011;64024;55.820;37.574;2023-04-25T14:19:44;4.15;;;3.00;;
75446;SDS011;64024;55.820;37.574;2023-04-25T14:22:12;4.50;;;3.28;;
75446;SDS011;64024;55.820;37.574;2023-04-25T14:24:40;4.30;;;3.03;;
75446;SDS011;64024;55.820;37.574;2023-04-25T14:27:06;4.25;;;3.00;;
75446;SDS011;64024;55.820;37.574;2023-04-25T14:29:31;7.82;;;4.32;;
75446;SDS011;64024;55.820;37.574;2023-04-25T14:31:57;6.43;;;3.83;;
75446;SDS011;64024;55.820;37.574;2023-04-25T14:34:24;4.55;;;3.45;;
75446;SDS011;64024;55.820;37.574;2023-04-25T14:36:51;4.85;;;2.92;;
75446;SDS011;64024;55.820;37.574;2023-04-25T14:39:17;5.25;;;2.90;;
75446;SDS011;64024;55.820;37.574;2023-04-25T14:41:43;5.60;;;3.22;;
75446;SDS011;64024;55.820;37.574;2023-04-25T14:44:09;3.25;;;2.40;;
75446;SDS011;64024;55.820;37.574;2023-04-25T14:46:35;7.07;;;3.30;;
75446;SDS011;64024;55.820;37.574;2023-04-25T14:49:02;7.13;;;3.25;;
75446;SDS011;64024;55.820;37.574;2023-04-25T14:51:28;3.72;;;3.35;;
75446;SDS011;64024;55.820;37.574;2023-04-25T14:53:54;6.00;;;3.00;;
75446;SDS011;64024;55.820;37.574;2023-04-25T14:56:20;5.10;;;2.97;;
75446;SDS011;64024;55.820;37.574;2023-04-25T14:58:46;3.58;;;2.88;;
75446;SDS011;64024;55.820;37.574;2023-04-25T15:01:13;4.07;;;3.67;;